< < Back
Terminal Aerodrome Forecast


Current Version              Previous Versions:   1  2  3  4  5  6  7  8  9  

Terminal Aerodrome Forecast

061
FTUS44 KBMX 232332
TAFMGM
TAF
KMGM 232332Z 2400/2424 02009KT P6SM BKN110
     FM241500 11006KT P6SM BKN100=



Latest METAR

053
SAUS80 KWBC 250000 RRB
MTRMGM
METAR KMGM 242353Z 00000KT 10SM CLR 23/13 A2993 RMK AO2 SLP134 T02330128
10267 20233 56011


USA.gov is the U.S. government's official web portal to all federal, state and local government web resources and services.